createdAt,value
2023-03-11T00:00:36.168Z,98126.06
2023-03-11T00:03:05.188Z,98111.91
2023-03-11T00:05:34.621Z,98133.09
2023-03-11T00:08:02.938Z,98142.66
2023-03-11T00:10:32.784Z,98145.16
2023-03-11T00:13:00.544Z,98162.03
2023-03-11T00:15:30.461Z,98177.72
2023-03-11T00:17:58.308Z,98184.81
2023-03-11T00:20:28.519Z,98190.06
2023-03-11T00:22:56.837Z,98210.22
2023-03-11T00:25:26.927Z,98213.69
2023-03-11T00:27:54.633Z,98231.22
2023-03-11T00:30:23.031Z,98238.25
2023-03-11T00:32:52.983Z,98247.84
2023-03-11T00:35:22.596Z,98253.94
2023-03-11T00:37:50.381Z,98267.94
2023-03-11T00:40:20.222Z,98270.63
2023-03-11T00:42:48.174Z,98271.53
2023-03-11T00:45:16.282Z,98282.97
2023-03-11T00:47:43.812Z,98286.50
2023-03-11T00:50:17.822Z,98306.59
2023-03-11T00:52:45.788Z,98321.50
2023-03-11T00:55:15.914Z,98313.72
2023-03-11T00:57:43.618Z,98331.16
2023-03-11T01:00:15.073Z,98333.88
2023-03-11T01:02:42.682Z,98337.31
2023-03-11T01:05:11.067Z,98346.09
2023-03-11T01:07:39.897Z,98362.75
2023-03-11T01:10:09.766Z,98354.84
2023-03-11T01:12:37.438Z,98363.59
2023-03-11T01:15:05.952Z,98364.47
2023-03-11T01:17:33.424Z,98372.13
2023-03-11T01:20:00.931Z,98387.16
2023-03-11T01:22:28.446Z,98398.56
2023-03-11T01:24:57.388Z,98413.50
2023-03-11T01:27:25.482Z,98415.22
2023-03-11T01:29:53.039Z,98411.81
2023-03-11T01:32:20.603Z,98429.28
2023-03-11T01:34:48.499Z,98430.09
2023-03-11T01:37:15.997Z,98437.16
2023-03-11T01:39:43.530Z,98439.78
2023-03-11T01:42:12.334Z,98442.50
2023-03-11T01:44:39.871Z,98455.56
2023-03-11T01:47:37.169Z,98453.84
2023-03-11T01:50:06.785Z,98468.72
2023-03-11T01:52:34.614Z,98474.94
2023-03-11T01:55:02.109Z,98477.47
2023-03-11T01:57:31.212Z,98488.88
2023-03-11T01:59:59.650Z,98510.81
2023-03-11T02:02:30.131Z,98512.59
2023-03-11T02:04:58.021Z,98527.44
2023-03-11T02:07:25.498Z,98521.41
2023-03-11T02:09:53.021Z,98532.75
2023-03-11T02:12:20.622Z,98537.09
2023-03-11T02:14:51.218Z,98548.53
2023-03-11T02:17:19.304Z,98558.16
2023-03-11T02:19:57.407Z,98561.69
2023-03-11T02:22:25.430Z,98565.19
2023-03-11T02:24:59.245Z,98566.88
2023-03-11T02:27:28.810Z,98580.00
2023-03-11T02:29:56.869Z,98590.47
2023-03-11T02:32:24.689Z,98591.44
2023-03-11T02:34:52.253Z,98601.06
2023-03-11T02:37:19.972Z,98610.69
2023-03-11T02:39:49.725Z,98607.22
2023-03-11T02:42:19.554Z,98616.84
2023-03-11T02:44:53.496Z,98620.41
2023-03-11T02:47:21.002Z,98627.41
2023-03-11T02:49:48.827Z,98633.50
2023-03-11T02:52:16.661Z,98638.69
2023-03-11T02:54:44.172Z,98642.28
2023-03-11T02:57:11.644Z,98638.72
2023-03-11T02:59:39.197Z,98658.88
2023-03-11T03:02:07.968Z,98654.47
2023-03-11T03:04:35.485Z,98658.00
2023-03-11T03:07:03.556Z,98662.38
2023-03-11T03:09:31.093Z,98665.91
2023-03-11T03:11:58.714Z,98677.25
2023-03-11T03:14:26.330Z,98683.34
2023-03-11T03:16:54.245Z,98695.69
2023-03-11T03:19:23.453Z,98694.78
2023-03-11T03:21:50.926Z,98693.00
2023-03-11T03:24:18.487Z,98703.56
2023-03-11T03:26:45.962Z,98707.97
2023-03-11T03:29:13.479Z,98715.84
2023-03-11T03:31:41.056Z,98717.56
2023-03-11T03:34:09.293Z,98728.94
2023-03-11T03:36:38.112Z,98734.16
2023-03-11T03:39:05.913Z,98735.09
2023-03-11T03:41:33.415Z,98743.84
2023-03-11T03:44:01.280Z,98737.72
2023-03-11T03:46:28.938Z,98748.19
2023-03-11T03:48:56.422Z,98748.22
2023-03-11T03:51:23.951Z,98762.22
2023-03-11T03:53:52.903Z,98768.34
2023-03-11T03:56:20.424Z,98762.25
2023-03-11T03:58:47.926Z,98776.25
2023-03-11T04:01:15.394Z,98793.78
2023-03-11T04:03:42.957Z,98793.78
2023-03-11T04:06:12.334Z,98792.00
2023-03-11T04:08:40.464Z,98799.00
2023-03-11T04:11:09.713Z,98804.28
2023-03-11T04:13:37.431Z,98806.91
2023-03-11T04:16:05.611Z,98808.63
2023-03-11T04:18:33.528Z,98806.91
2023-03-11T04:21:01.455Z,98814.78
2023-03-11T04:23:29.031Z,98821.78
2023-03-11T04:25:56.775Z,98815.66
2023-03-11T04:28:25.610Z,98821.59
2023-03-11T04:30:53.375Z,98820.84
2023-03-11T04:33:21.189Z,98827.06
2023-03-11T04:35:49.051Z,98829.69
2023-03-11T04:38:16.542Z,98835.78
2023-03-11T04:40:44.038Z,98838.44
2023-03-11T04:43:11.514Z,98840.19
2023-03-11T04:45:41.248Z,98841.97
2023-03-11T04:48:09.177Z,98848.94
2023-03-11T04:50:36.912Z,98838.44
2023-03-11T04:53:04.365Z,98848.81
2023-03-11T04:55:33.278Z,98853.34
2023-03-11T04:58:00.790Z,98852.47
2023-03-11T05:00:28.529Z,98857.72
2023-03-11T05:02:57.365Z,98860.34
2023-03-11T05:05:25.039Z,98863.88
2023-03-11T05:07:52.517Z,98871.72
2023-03-11T05:10:22.482Z,98870.84
2023-03-11T05:12:50.742Z,98875.25
2023-03-11T05:15:18.665Z,98872.59
2023-03-11T05:17:46.217Z,98882.22
2023-03-11T05:20:15.949Z,98888.34
2023-03-11T05:22:44.007Z,98892.78
2023-03-11T05:25:11.607Z,98897.09
2023-03-11T05:27:39.190Z,98903.28
2023-03-11T05:30:08.088Z,98906.78
2023-03-11T05:32:35.576Z,98908.53
2023-03-11T05:35:04.442Z,98919.91
2023-03-11T05:37:33.385Z,98920.78
2023-03-11T05:40:00.875Z,98921.66
2023-03-11T05:42:28.391Z,98932.16
2023-03-11T05:44:55.869Z,98922.53
2023-03-11T05:47:23.393Z,98939.16
2023-03-11T05:49:51.673Z,98943.53
2023-03-11T05:52:19.361Z,98945.31
2023-03-11T05:54:50.400Z,98947.06
2023-03-11T05:57:17.932Z,98947.94
2023-03-11T05:59:45.682Z,98948.81
2023-03-11T06:02:13.333Z,98954.06
2023-03-11T06:04:41.072Z,98965.47
2023-03-11T06:07:09.361Z,98962.81
2023-03-11T06:09:37.097Z,98973.34
2023-03-11T06:12:06.583Z,98974.22
2023-03-11T06:14:34.077Z,98980.34
2023-03-11T06:17:01.551Z,98993.50
2023-03-11T06:19:29.683Z,98989.94
2023-03-11T06:21:57.154Z,98986.47
2023-03-11T06:24:24.684Z,98996.09
2023-03-11T06:26:52.793Z,99003.09
2023-03-11T06:29:24.370Z,99004.03
2023-03-11T06:31:51.959Z,99015.38
2023-03-11T06:34:19.559Z,99013.63
2023-03-11T06:36:47.057Z,99031.97
2023-03-11T06:39:15.615Z,99023.22
2023-03-11T06:41:43.475Z,99035.53
2023-03-11T06:44:11.361Z,99053.00
2023-03-11T06:46:40.297Z,99053.00
2023-03-11T06:49:07.866Z,99051.22
2023-03-11T06:51:35.562Z,99061.81
2023-03-11T06:54:03.041Z,99068.78
2023-03-11T06:56:30.527Z,99065.34
2023-03-11T06:58:58.001Z,99077.53
2023-03-11T07:01:27.269Z,99091.53
2023-03-11T07:03:56.154Z,99088.06
2023-03-11T07:06:25.397Z,99088.00
2023-03-11T07:08:53.797Z,99097.66
2023-03-11T07:11:23.085Z,99099.44
2023-03-11T07:13:51.029Z,99109.97
2023-03-11T07:16:19.888Z,99109.06
2023-03-11T07:18:49.302Z,99111.72
2023-03-11T07:21:19.998Z,99122.19
2023-03-11T07:23:49.218Z,99124.78
2023-03-11T07:26:17.865Z,99130.97
2023-03-11T07:28:45.725Z,99137.97
2023-03-11T07:31:17.894Z,99131.00
2023-03-11T07:33:48.123Z,99130.22
2023-03-11T07:36:18.660Z,99140.66
2023-03-11T07:38:46.912Z,99144.06
2023-03-11T07:41:14.979Z,99139.81
2023-03-11T07:43:43.803Z,99146.78
2023-03-11T07:46:14.044Z,99155.56
2023-03-11T07:48:41.893Z,99158.19
2023-03-11T07:51:12.093Z,99150.38
2023-03-11T07:53:41.440Z,99160.03
2023-03-11T07:56:09.223Z,99173.97
2023-03-11T07:58:37.083Z,99182.72
2023-03-11T08:01:06.814Z,99187.16
2023-03-11T08:03:34.625Z,99195.03
2023-03-11T08:06:02.519Z,99199.41
2023-03-11T08:08:29.995Z,99199.34
2023-03-11T08:10:58.793Z,99202.97
2023-03-11T08:13:26.318Z,99210.88
2023-03-11T08:15:54.020Z,99218.66
2023-03-11T08:18:21.493Z,99216.88
2023-03-11T08:20:48.988Z,99223.03
2023-03-11T08:23:16.590Z,99232.66
2023-03-11T08:25:44.089Z,99232.69
2023-03-11T08:28:12.913Z,99231.88
2023-03-11T08:30:42.010Z,99240.50
2023-03-11T08:33:09.697Z,99246.72
2023-03-11T08:35:37.776Z,99251.06
2023-03-11T08:38:05.504Z,99249.34
2023-03-11T08:40:33.029Z,99255.44
2023-03-11T08:43:00.517Z,99261.59
2023-03-11T08:45:29.389Z,99263.47
2023-03-11T08:47:56.945Z,99272.13
2023-03-11T08:50:24.853Z,99272.22
2023-03-11T08:52:52.492Z,99282.75
2023-03-11T08:55:25.093Z,99282.88
2023-03-11T08:57:52.609Z,99295.97
2023-03-11T09:00:21.222Z,99293.38
2023-03-11T09:02:50.457Z,99309.88
2023-03-11T09:05:18.167Z,99309.00
2023-03-11T09:07:45.863Z,99310.78
2023-03-11T09:10:14.691Z,99323.97
2023-03-11T09:12:42.292Z,99316.19
2023-03-11T09:15:10.512Z,99321.34
2023-03-11T09:17:38.223Z,99320.69
2023-03-11T09:20:08.495Z,99324.91
2023-03-11T09:22:36.017Z,99334.59
2023-03-11T09:25:03.513Z,99331.00
2023-03-11T09:27:31.015Z,99340.75
2023-03-11T09:29:58.492Z,99342.56
2023-03-11T09:32:26.656Z,99352.22
2023-03-11T09:34:54.295Z,99349.47
2023-03-11T09:37:23.128Z,99344.28
2023-03-11T09:39:50.617Z,99347.75
2023-03-11T09:42:21.271Z,99354.72
2023-03-11T09:44:55.872Z,99359.25
2023-03-11T09:47:38.027Z,99364.50
2023-03-11T09:50:16.624Z,99361.09
2023-03-11T09:52:48.610Z,99361.94
2023-03-11T09:55:37.306Z,99368.97
2023-03-11T09:58:10.656Z,99371.50
2023-03-11T10:00:38.286Z,99374.97
2023-03-11T10:03:08.440Z,99381.09
2023-03-11T10:05:35.967Z,99375.88
2023-03-11T10:08:11.661Z,99382.88
2023-03-11T10:10:44.442Z,99383.81
2023-03-11T10:13:16.314Z,99380.31
2023-03-11T10:15:50.269Z,99401.25
2023-03-11T10:18:38.098Z,99396.06
2023-03-11T10:21:09.209Z,99405.72
2023-03-11T10:23:49.623Z,99416.34
2023-03-11T10:26:21.697Z,99410.13
2023-03-11T10:28:52.122Z,99418.03
2023-03-11T10:31:23.458Z,99414.63
2023-03-11T10:33:54.036Z,99416.25
2023-03-11T10:36:26.527Z,99423.41
2023-03-11T10:38:56.394Z,99434.66
2023-03-11T10:41:28.687Z,99425.03
2023-03-11T10:44:02.829Z,99425.91
2023-03-11T10:46:30.378Z,99433.91
2023-03-11T10:48:58.247Z,99421.66
2023-03-11T10:51:28.302Z,99432.19
2023-03-11T10:53:59.083Z,99431.38
2023-03-11T10:56:29.358Z,99432.28
2023-03-11T10:58:57.513Z,99433.97
2023-03-11T11:01:25.567Z,99437.44
2023-03-11T11:03:55.874Z,99439.31
2023-03-11T11:06:27.452Z,99434.84
2023-03-11T11:09:15.788Z,99449.78
2023-03-11T11:11:43.800Z,99448.84
2023-03-11T11:14:11.394Z,99448.84
2023-03-11T11:16:39.056Z,99464.59
2023-03-11T11:19:10.264Z,99453.19
2023-03-11T11:21:39.684Z,99458.44
2023-03-11T11:24:16.848Z,99455.88
2023-03-11T11:26:44.546Z,99459.41
2023-03-11T11:29:15.783Z,99449.75
2023-03-11T11:31:45.898Z,99452.38
2023-03-11T11:34:29.096Z,99448.91
2023-03-11T11:36:58.131Z,99446.13
2023-03-11T11:39:27.650Z,99447.94
2023-03-11T11:41:56.573Z,99457.72
2023-03-11T11:44:31.013Z,99463.00
2023-03-11T11:47:02.099Z,99462.09
2023-03-11T11:49:31.482Z,99449.88
2023-03-11T11:52:04.136Z,99467.50
2023-03-11T11:54:36.259Z,99458.69
2023-03-11T11:57:12.156Z,99459.59
2023-03-11T11:59:39.733Z,99461.28
2023-03-11T12:02:19.084Z,99466.59
2023-03-11T12:04:50.300Z,99456.13
2023-03-11T12:07:31.018Z,99458.75
2023-03-11T12:10:21.329Z,99457.78
2023-03-11T12:13:00.148Z,99461.34
2023-03-11T12:15:30.100Z,99465.75
2023-03-11T12:18:02.370Z,99454.38
2023-03-11T12:20:33.399Z,99469.25
2023-03-11T12:23:20.413Z,99463.16
2023-03-11T12:26:03.319Z,99462.22
2023-03-11T12:28:39.256Z,99469.22
2023-03-11T12:31:09.760Z,99470.97
2023-03-11T12:33:39.513Z,99479.84
2023-03-11T12:36:10.243Z,99475.41
2023-03-11T12:38:40.089Z,99478.03
2023-03-11T12:41:09.722Z,99471.03
2023-03-11T12:44:22.555Z,99479.84
2023-03-11T12:47:32.437Z,99472.78
2023-03-11T12:50:37.971Z,99474.56
2023-03-11T12:53:05.490Z,99465.81
2023-03-11T12:55:37.362Z,99470.16
2023-03-11T12:58:46.812Z,99479.84
2023-03-11T13:01:41.789Z,99478.97
2023-03-11T13:04:22.172Z,99475.47
2023-03-11T13:07:32.471Z,99467.59
2023-03-11T13:10:18.772Z,99476.34
2023-03-11T13:12:47.400Z,99480.72
2023-03-11T13:15:35.268Z,99473.75
2023-03-11T13:18:06.160Z,99479.88
2023-03-11T13:20:49.716Z,99472.84
2023-03-11T13:23:33.396Z,99478.13
2023-03-11T13:26:31.242Z,99477.22
2023-03-11T13:29:30.872Z,99473.72
2023-03-11T13:32:12.176Z,99481.63
2023-03-11T13:34:44.840Z,99481.63
2023-03-11T13:37:20.364Z,99487.78
2023-03-11T13:39:54.860Z,99502.72
2023-03-11T13:42:28.431Z,99493.94
2023-03-11T13:44:56.103Z,99501.00
2023-03-11T13:47:26.263Z,99500.09
2023-03-11T13:49:55.727Z,99504.50
2023-03-11T13:52:27.897Z,99504.50
2023-03-11T13:55:00.478Z,99493.06
2023-03-11T13:57:29.988Z,99503.63
2023-03-11T13:59:58.837Z,99505.38
2023-03-11T14:02:28.435Z,99511.53
2023-03-11T14:04:59.862Z,99523.84
2023-03-11T14:07:29.918Z,99518.56
2023-03-11T14:10:17.761Z,99520.34
2023-03-11T14:12:45.507Z,99522.97
2023-03-11T14:15:15.216Z,99523.00
2023-03-11T14:17:44.221Z,99525.63
2023-03-11T14:20:16.220Z,99522.09
2023-03-11T14:22:48.256Z,99524.72
2023-03-11T14:25:19.577Z,99519.47
2023-03-11T14:27:54.057Z,99520.34
2023-03-11T14:30:23.704Z,99522.94
2023-03-11T14:33:01.938Z,99535.28
2023-03-11T14:35:30.474Z,99530.84
2023-03-11T14:37:58.327Z,99529.13
2023-03-11T14:40:28.276Z,99525.56
2023-03-11T14:42:57.412Z,99527.34
2023-03-11T14:45:26.406Z,99537.03
2023-03-11T14:47:57.668Z,99537.00
2023-03-11T14:50:28.413Z,99547.59
2023-03-11T14:52:58.819Z,99541.41
2023-03-11T14:55:30.989Z,99535.22
2023-03-11T14:58:01.258Z,99541.44
2023-03-11T15:00:31.543Z,99541.41
2023-03-11T15:03:04.487Z,99537.81
2023-03-11T15:05:37.683Z,99537.78
2023-03-11T15:08:07.305Z,99538.78
2023-03-11T15:10:36.846Z,99536.97
2023-03-11T15:13:10.006Z,99544.94
2023-03-11T15:15:37.325Z,99541.41
2023-03-11T15:18:16.277Z,99542.25
2023-03-11T15:20:45.055Z,99533.50
2023-03-11T15:23:20.786Z,99543.13
2023-03-11T15:25:50.279Z,99538.78
2023-03-11T15:28:25.385Z,99552.88
2023-03-11T15:31:17.850Z,99549.31
2023-03-11T15:33:45.931Z,99556.38
2023-03-11T15:36:30.484Z,99551.09
2023-03-11T15:39:17.492Z,99556.34
2023-03-11T15:41:46.418Z,99555.47
2023-03-11T15:44:26.418Z,99547.44
2023-03-11T15:46:55.335Z,99550.59
2023-03-11T15:49:22.987Z,99544.91
2023-03-11T15:51:50.476Z,99546.66
2023-03-11T15:54:17.961Z,99559.56
2023-03-11T15:56:45.925Z,99558.03
2023-03-11T15:59:15.409Z,99558.03
2023-03-11T16:01:43.257Z,99554.47
2023-03-11T16:04:15.958Z,99564.56
2023-03-11T16:06:44.100Z,99555.41
2023-03-11T16:09:13.649Z,99554.38
2023-03-11T16:11:42.044Z,99566.84
2023-03-11T16:14:15.793Z,99564.19
2023-03-11T16:16:43.471Z,99565.09
2023-03-11T16:19:11.016Z,99565.78
2023-03-11T16:21:42.746Z,99580.69
2023-03-11T16:24:16.201Z,99579.56
2023-03-11T16:26:43.690Z,99574.72
2023-03-11T16:29:18.918Z,99576.66
2023-03-11T16:31:49.151Z,99582.31
2023-03-11T16:34:16.748Z,99586.66
2023-03-11T16:36:45.546Z,99578.63
2023-03-11T16:39:14.564Z,99588.66
2023-03-11T16:41:44.016Z,99574.19
2023-03-11T16:44:11.569Z,99590.06
2023-03-11T16:46:39.187Z,99596.06
2023-03-11T16:49:06.687Z,99598.59
2023-03-11T16:51:34.507Z,99598.50
2023-03-11T16:54:03.328Z,99598.66
2023-03-11T16:56:30.845Z,99602.28
2023-03-11T16:58:58.459Z,99608.03
2023-03-11T17:01:26.179Z,99607.88
2023-03-11T17:03:54.116Z,99606.16
2023-03-11T17:06:22.270Z,99607.31
2023-03-11T17:08:50.529Z,99607.06
2023-03-11T17:11:20.784Z,99614.13
2023-03-11T17:13:48.304Z,99619.63
2023-03-11T17:16:15.799Z,99621.44
2023-03-11T17:18:43.587Z,99621.38
2023-03-11T17:21:12.685Z,99625.75
2023-03-11T17:23:40.214Z,99634.53
2023-03-11T17:26:09.463Z,99630.22
2023-03-11T17:28:40.090Z,99634.69
2023-03-11T17:31:12.038Z,99632.03
2023-03-11T17:33:39.569Z,99635.59
2023-03-11T17:36:08.942Z,99636.50
2023-03-11T17:38:36.731Z,99642.66
2023-03-11T17:41:08.263Z,99645.31
2023-03-11T17:43:35.809Z,99645.22
2023-03-11T17:46:07.591Z,99643.47
2023-03-11T17:48:35.140Z,99647.97
2023-03-11T17:51:06.339Z,99647.91
2023-03-11T17:53:35.828Z,99643.50
2023-03-11T17:56:03.934Z,99651.44
2023-03-11T17:58:31.876Z,99648.84
2023-03-11T18:00:59.762Z,99654.09
2023-03-11T18:03:28.544Z,99650.56
2023-03-11T18:05:56.451Z,99655.84
2023-03-11T18:08:23.939Z,99654.97
2023-03-11T18:10:51.566Z,99654.13
2023-03-11T18:13:19.660Z,99662.81
2023-03-11T18:15:47.572Z,99658.31
2023-03-11T18:18:15.120Z,99668.09
2023-03-11T18:20:43.872Z,99665.50
2023-03-11T18:23:11.378Z,99672.22
2023-03-11T18:25:38.860Z,99672.06
2023-03-11T18:28:06.390Z,99665.34
2023-03-11T18:30:37.023Z,99667.22
2023-03-11T18:33:04.953Z,99677.50
2023-03-11T18:35:32.458Z,99672.38
2023-03-11T18:38:01.281Z,99666.28
2023-03-11T18:40:28.767Z,99670.56
2023-03-11T18:42:56.389Z,99672.28
2023-03-11T18:45:23.851Z,99676.69
2023-03-11T18:47:51.339Z,99675.91
2023-03-11T18:50:20.050Z,99677.75
2023-03-11T18:52:47.634Z,99671.50
2023-03-11T18:55:16.778Z,99675.94
2023-03-11T18:57:44.266Z,99678.56
2023-03-11T19:00:13.321Z,99683.84
2023-03-11T19:02:40.798Z,99696.13
2023-03-11T19:05:08.959Z,99687.34
2023-03-11T19:07:36.505Z,99695.22
2023-03-11T19:10:04.309Z,99692.56
2023-03-11T19:12:34.315Z,99689.94
2023-03-11T19:15:01.905Z,99688.22
2023-03-11T19:17:29.388Z,99687.28
2023-03-11T19:19:56.850Z,99692.53
2023-03-11T19:22:24.641Z,99688.22
2023-03-11T19:24:54.527Z,99686.34
2023-03-11T19:27:22.198Z,99679.38
2023-03-11T19:29:51.378Z,99690.84
2023-03-11T19:32:18.916Z,99698.78
2023-03-11T19:34:46.646Z,99691.75
2023-03-11T19:37:14.308Z,99695.28
2023-03-11T19:39:41.984Z,99692.63
2023-03-11T19:42:09.655Z,99697.81
2023-03-11T19:44:37.437Z,99688.16
2023-03-11T19:47:06.438Z,99696.06
2023-03-11T19:49:34.045Z,99695.19
2023-03-11T19:52:01.574Z,99706.69
2023-03-11T19:54:29.058Z,99691.66
2023-03-11T19:56:56.594Z,99697.75
2023-03-11T19:59:24.215Z,99698.59
2023-03-11T20:01:51.779Z,99695.16
2023-03-11T20:04:21.836Z,99705.66
2023-03-11T20:06:50.048Z,99699.59
2023-03-11T20:09:17.739Z,99708.22
2023-03-11T20:11:45.639Z,99704.81
2023-03-11T20:14:13.459Z,99703.91
2023-03-11T20:16:41.164Z,99710.94
2023-03-11T20:19:08.972Z,99715.34
2023-03-11T20:21:40.597Z,99717.84
2023-03-11T20:24:09.153Z,99714.34
2023-03-11T20:26:37.200Z,99720.56
2023-03-11T20:29:04.772Z,99730.19
2023-03-11T20:31:32.440Z,99715.19
2023-03-11T20:34:00.535Z,99720.59
2023-03-11T20:36:29.775Z,99722.34
2023-03-11T20:38:58.668Z,99716.97
2023-03-11T20:41:27.475Z,99716.19
2023-03-11T20:43:56.149Z,99712.59
2023-03-11T20:46:24.091Z,99716.09
2023-03-11T20:48:51.698Z,99718.78
2023-03-11T20:51:20.524Z,99711.81
2023-03-11T20:53:48.827Z,99718.81
2023-03-11T20:56:20.286Z,99720.53
2023-03-11T20:58:48.787Z,99725.78
2023-03-11T21:01:19.291Z,99720.59
2023-03-11T21:03:47.347Z,99716.19
2023-03-11T21:06:16.914Z,99717.06
2023-03-11T21:08:44.626Z,99721.41
2023-03-11T21:11:12.339Z,99724.03
2023-03-11T21:13:41.173Z,99725.81
2023-03-11T21:16:10.507Z,99727.50
2023-03-11T21:18:38.270Z,99724.91
2023-03-11T21:21:08.382Z,99728.91
2023-03-11T21:23:36.112Z,99722.22
2023-03-11T21:26:04.506Z,99714.38
2023-03-11T21:28:34.326Z,99721.34
2023-03-11T21:31:05.428Z,99711.63
2023-03-11T21:33:33.414Z,99727.50
2023-03-11T21:36:02.107Z,99718.75
2023-03-11T21:38:30.424Z,99723.97
2023-03-11T21:41:06.524Z,99719.47
2023-03-11T21:43:34.555Z,99720.38
2023-03-11T21:46:03.564Z,99717.69
2023-03-11T21:48:31.376Z,99719.53
2023-03-11T21:50:58.851Z,99724.75
2023-03-11T21:53:26.940Z,99723.00
2023-03-11T21:55:55.117Z,99723.06
2023-03-11T21:58:22.954Z,99730.06
2023-03-11T22:00:50.662Z,99725.56
2023-03-11T22:03:19.943Z,99728.28
2023-03-11T22:05:47.769Z,99721.22
2023-03-11T22:08:15.687Z,99723.00
2023-03-11T22:10:43.265Z,99726.47
2023-03-11T22:13:10.870Z,99728.25
2023-03-11T22:15:38.873Z,99726.44
2023-03-11T22:18:06.641Z,99723.00
2023-03-11T22:20:35.498Z,99715.06
2023-03-11T22:23:03.409Z,99718.50
2023-03-11T22:25:30.993Z,99724.66
2023-03-11T22:27:58.657Z,99726.44
2023-03-11T22:30:26.233Z,99728.19
2023-03-11T22:32:54.176Z,99726.44
2023-03-11T22:35:21.723Z,99727.19
2023-03-11T22:37:50.505Z,99729.94
2023-03-11T22:40:18.050Z,99726.38
2023-03-11T22:42:45.568Z,99729.00
2023-03-11T22:45:13.052Z,99733.34
2023-03-11T22:47:41.593Z,99721.97
2023-03-11T22:50:09.920Z,99728.03
2023-03-11T22:52:37.449Z,99729.88
2023-03-11T22:55:06.964Z,99727.22
2023-03-11T22:57:38.710Z,99726.31
2023-03-11T23:00:15.236Z,99718.34
2023-03-11T23:02:42.753Z,99733.28
2023-03-11T23:05:10.925Z,99739.41
2023-03-11T23:07:38.404Z,99733.25
2023-03-11T23:10:09.026Z,99733.28
2023-03-11T23:12:37.821Z,99731.44
2023-03-11T23:15:06.921Z,99728.94
2023-03-11T23:17:34.587Z,99732.47
2023-03-11T23:20:02.407Z,99727.16
2023-03-11T23:22:29.902Z,99724.50
2023-03-11T23:24:57.393Z,99731.47
2023-03-11T23:27:26.242Z,99728.84
2023-03-11T23:29:53.846Z,99730.47
2023-03-11T23:32:21.475Z,99736.59
2023-03-11T23:34:49.153Z,99731.47
2023-03-11T23:37:16.709Z,99738.50
2023-03-11T23:39:44.169Z,99738.41
2023-03-11T23:42:24.957Z,99741.91
2023-03-11T23:44:55.168Z,99734.09
2023-03-11T23:47:22.682Z,99736.72
2023-03-11T23:49:50.146Z,99743.66
2023-03-11T23:52:17.777Z,99742.81
2023-03-11T23:54:45.251Z,99743.66
2023-03-11T23:57:12.781Z,99739.25
2023-03-11T23:59:40.254Z,99740.06
